sensor_id;sensor_type;location;lat;lon;timestamp;P1;durP1;ratioP1;P2;durP2;ratioP2
76292;SDS011;67256;51.154;4.164;2023-04-07T00:00:51;23.90;;;11.90;;
76292;SDS011;67256;51.154;4.164;2023-04-07T00:03:16;22.52;;;12.00;;
76292;SDS011;67256;51.154;4.164;2023-04-07T00:05:42;27.80;;;12.23;;
76292;SDS011;67256;51.154;4.164;2023-04-07T00:08:08;31.17;;;11.13;;
76292;SDS011;67256;51.154;4.164;2023-04-07T00:10:34;19.85;;;11.23;;
76292;SDS011;67256;51.154;4.164;2023-04-07T00:12:59;27.60;;;11.50;;
76292;SDS011;67256;51.154;4.164;2023-04-07T00:15:26;30.45;;;10.07;;
76292;SDS011;67256;51.154;4.164;2023-04-07T00:17:51;19.92;;;10.07;;
76292;SDS011;67256;51.154;4.164;2023-04-07T00:20:17;19.48;;;9.13;;
76292;SDS011;67256;51.154;4.164;2023-04-07T00:22:43;26.05;;;9.82;;
76292;SDS011;67256;51.154;4.164;2023-04-07T00:25:09;19.98;;;9.52;;
76292;SDS011;67256;51.154;4.164;2023-04-07T00:27:35;20.50;;;8.80;;
76292;SDS011;67256;51.154;4.164;2023-04-07T00:30:01;19.77;;;8.27;;
76292;SDS011;67256;51.154;4.164;2023-04-07T00:32:27;18.13;;;8.90;;
76292;SDS011;67256;51.154;4.164;2023-04-07T00:34:52;21.60;;;8.75;;
76292;SDS011;67256;51.154;4.164;2023-04-07T00:37:18;19.10;;;9.15;;
76292;SDS011;67256;51.154;4.164;2023-04-07T00:39:44;17.13;;;8.77;;
76292;SDS011;67256;51.154;4.164;2023-04-07T00:42:10;16.58;;;9.18;;
76292;SDS011;67256;51.154;4.164;2023-04-07T00:44:36;21.10;;;9.13;;
76292;SDS011;67256;51.154;4.164;2023-04-07T00:47:02;21.27;;;9.50;;
76292;SDS011;67256;51.154;4.164;2023-04-07T00:49:28;18.60;;;9.23;;
76292;SDS011;67256;51.154;4.164;2023-04-07T00:51:54;13.60;;;8.80;;
76292;SDS011;67256;51.154;4.164;2023-04-07T00:54:24;18.02;;;8.50;;
76292;SDS011;67256;51.154;4.164;2023-04-07T00:56:51;20.97;;;8.70;;
76292;SDS011;67256;51.154;4.164;2023-04-07T00:59:17;13.32;;;8.05;;
76292;SDS011;67256;51.154;4.164;2023-04-07T01:01:44;22.45;;;9.57;;
76292;SDS011;67256;51.154;4.164;2023-04-07T01:04:26;17.73;;;9.43;;
76292;SDS011;67256;51.154;4.164;2023-04-07T01:07:03;23.08;;;9.73;;
76292;SDS011;67256;51.154;4.164;2023-04-07T01:09:46;21.13;;;8.77;;
76292;SDS011;67256;51.154;4.164;2023-04-07T01:12:32;12.90;;;8.27;;
76292;SDS011;67256;51.154;4.164;2023-04-07T01:14:59;21.90;;;9.35;;
76292;SDS011;67256;51.154;4.164;2023-04-07T01:17:32;16.85;;;8.75;;
76292;SDS011;67256;51.154;4.164;2023-04-07T01:20:02;13.65;;;8.50;;
76292;SDS011;67256;51.154;4.164;2023-04-07T01:22:32;17.33;;;9.27;;
76292;SDS011;67256;51.154;4.164;2023-04-07T01:25:13;14.35;;;8.80;;
76292;SDS011;67256;51.154;4.164;2023-04-07T01:30:38;15.73;;;9.18;;
76292;SDS011;67256;51.154;4.164;2023-04-07T01:33:05;13.23;;;8.40;;
76292;SDS011;67256;51.154;4.164;2023-04-07T01:35:35;13.63;;;9.18;;
76292;SDS011;67256;51.154;4.164;2023-04-07T01:38:03;14.77;;;8.63;;
76292;SDS011;67256;51.154;4.164;2023-04-07T01:40:29;19.10;;;10.00;;
76292;SDS011;67256;51.154;4.164;2023-04-07T01:42:59;14.43;;;8.85;;
76292;SDS011;67256;51.154;4.164;2023-04-07T01:45:25;15.77;;;8.75;;
76292;SDS011;67256;51.154;4.164;2023-04-07T01:47:53;17.63;;;8.95;;
76292;SDS011;67256;51.154;4.164;2023-04-07T01:50:19;19.92;;;9.75;;
76292;SDS011;67256;51.154;4.164;2023-04-07T01:52:46;16.88;;;9.52;;
76292;SDS011;67256;51.154;4.164;2023-04-07T01:55:12;16.30;;;8.75;;
76292;SDS011;67256;51.154;4.164;2023-04-07T01:57:39;18.65;;;9.55;;
76292;SDS011;67256;51.154;4.164;2023-04-07T02:00:05;21.67;;;11.00;;
76292;SDS011;67256;51.154;4.164;2023-04-07T02:02:33;24.35;;;9.55;;
76292;SDS011;67256;51.154;4.164;2023-04-07T02:05:04;15.23;;;9.25;;
76292;SDS011;67256;51.154;4.164;2023-04-07T02:07:52;15.52;;;8.32;;
76292;SDS011;67256;51.154;4.164;2023-04-07T02:10:23;18.55;;;8.43;;
76292;SDS011;67256;51.154;4.164;2023-04-07T02:12:51;14.88;;;8.93;;
76292;SDS011;67256;51.154;4.164;2023-04-07T02:15:18;17.92;;;9.45;;
76292;SDS011;67256;51.154;4.164;2023-04-07T02:17:46;20.50;;;9.98;;
76292;SDS011;67256;51.154;4.164;2023-04-07T02:20:15;14.40;;;8.65;;
76292;SDS011;67256;51.154;4.164;2023-04-07T02:22:42;18.35;;;10.55;;
76292;SDS011;67256;51.154;4.164;2023-04-07T02:28:04;16.73;;;9.43;;
76292;SDS011;67256;51.154;4.164;2023-04-07T02:30:33;15.10;;;10.45;;
76292;SDS011;67256;51.154;4.164;2023-04-07T02:32:59;18.60;;;9.55;;
76292;SDS011;67256;51.154;4.164;2023-04-07T02:35:25;22.13;;;10.07;;
76292;SDS011;67256;51.154;4.164;2023-04-07T02:37:51;27.75;;;10.90;;
76292;SDS011;67256;51.154;4.164;2023-04-07T02:40:17;17.52;;;10.20;;
76292;SDS011;67256;51.154;4.164;2023-04-07T02:42:42;18.95;;;11.07;;
76292;SDS011;67256;51.154;4.164;2023-04-07T02:45:08;22.00;;;11.80;;
76292;SDS011;67256;51.154;4.164;2023-04-07T02:47:35;22.48;;;11.48;;
76292;SDS011;67256;51.154;4.164;2023-04-07T02:50:02;16.60;;;9.80;;
76292;SDS011;67256;51.154;4.164;2023-04-07T02:52:28;16.38;;;10.82;;
76292;SDS011;67256;51.154;4.164;2023-04-07T02:54:53;23.27;;;11.60;;
76292;SDS011;67256;51.154;4.164;2023-04-07T02:57:19;25.35;;;12.40;;
76292;SDS011;67256;51.154;4.164;2023-04-07T02:59:45;20.15;;;11.82;;
76292;SDS011;67256;51.154;4.164;2023-04-07T03:02:14;26.88;;;11.32;;
76292;SDS011;67256;51.154;4.164;2023-04-07T03:04:40;20.77;;;11.98;;
76292;SDS011;67256;51.154;4.164;2023-04-07T03:07:06;22.25;;;13.02;;
76292;SDS011;67256;51.154;4.164;2023-04-07T03:09:32;19.77;;;11.13;;
76292;SDS011;67256;51.154;4.164;2023-04-07T03:11:57;22.65;;;11.95;;
76292;SDS011;67256;51.154;4.164;2023-04-07T03:14:23;22.83;;;13.88;;
76292;SDS011;67256;51.154;4.164;2023-04-07T03:16:49;22.88;;;12.88;;
76292;SDS011;67256;51.154;4.164;2023-04-07T03:19:15;24.55;;;12.73;;
76292;SDS011;67256;51.154;4.164;2023-04-07T03:21:41;22.77;;;12.63;;
76292;SDS011;67256;51.154;4.164;2023-04-07T03:24:07;21.75;;;12.50;;
76292;SDS011;67256;51.154;4.164;2023-04-07T03:26:33;25.02;;;12.75;;
76292;SDS011;67256;51.154;4.164;2023-04-07T03:28:58;19.92;;;12.50;;
76292;SDS011;67256;51.154;4.164;2023-04-07T03:31:24;21.73;;;12.43;;
76292;SDS011;67256;51.154;4.164;2023-04-07T03:33:50;20.42;;;12.82;;
76292;SDS011;67256;51.154;4.164;2023-04-07T03:36:16;35.85;;;14.23;;
76292;SDS011;67256;51.154;4.164;2023-04-07T03:38:45;22.92;;;12.70;;
76292;SDS011;67256;51.154;4.164;2023-04-07T03:41:11;22.90;;;12.88;;
76292;SDS011;67256;51.154;4.164;2023-04-07T03:43:37;23.50;;;13.48;;
76292;SDS011;67256;51.154;4.164;2023-04-07T03:46:03;26.63;;;13.98;;
76292;SDS011;67256;51.154;4.164;2023-04-07T03:48:29;24.85;;;14.68;;
76292;SDS011;67256;51.154;4.164;2023-04-07T03:50:55;28.48;;;14.75;;
76292;SDS011;67256;51.154;4.164;2023-04-07T03:53:21;25.48;;;15.00;;
76292;SDS011;67256;51.154;4.164;2023-04-07T03:55:47;25.17;;;14.88;;
76292;SDS011;67256;51.154;4.164;2023-04-07T03:58:13;23.15;;;15.25;;
76292;SDS011;67256;51.154;4.164;2023-04-07T04:00:39;28.70;;;16.83;;
76292;SDS011;67256;51.154;4.164;2023-04-07T04:03:05;30.25;;;15.00;;
76292;SDS011;67256;51.154;4.164;2023-04-07T04:05:30;27.05;;;16.02;;
76292;SDS011;67256;51.154;4.164;2023-04-07T04:07:56;25.88;;;15.13;;
76292;SDS011;67256;51.154;4.164;2023-04-07T04:10:22;24.98;;;15.88;;
76292;SDS011;67256;51.154;4.164;2023-04-07T04:12:48;25.50;;;15.88;;
76292;SDS011;67256;51.154;4.164;2023-04-07T04:15:14;30.33;;;16.40;;
76292;SDS011;67256;51.154;4.164;2023-04-07T04:17:40;27.30;;;16.05;;
76292;SDS011;67256;51.154;4.164;2023-04-07T04:20:06;28.42;;;16.75;;
76292;SDS011;67256;51.154;4.164;2023-04-07T04:22:33;31.45;;;17.65;;
76292;SDS011;67256;51.154;4.164;2023-04-07T04:24:59;29.70;;;17.90;;
76292;SDS011;67256;51.154;4.164;2023-04-07T04:27:25;32.55;;;17.17;;
76292;SDS011;67256;51.154;4.164;2023-04-07T04:29:51;32.33;;;17.52;;
76292;SDS011;67256;51.154;4.164;2023-04-07T04:32:17;32.03;;;17.98;;
76292;SDS011;67256;51.154;4.164;2023-04-07T04:34:43;35.80;;;18.77;;
76292;SDS011;67256;51.154;4.164;2023-04-07T04:37:10;29.65;;;17.75;;
76292;SDS011;67256;51.154;4.164;2023-04-07T04:39:36;30.27;;;18.20;;
76292;SDS011;67256;51.154;4.164;2023-04-07T04:42:01;27.20;;;17.42;;
76292;SDS011;67256;51.154;4.164;2023-04-07T04:44:28;33.08;;;17.52;;
76292;SDS011;67256;51.154;4.164;2023-04-07T04:46:54;26.52;;;18.33;;
76292;SDS011;67256;51.154;4.164;2023-04-07T04:49:20;40.08;;;19.10;;
76292;SDS011;67256;51.154;4.164;2023-04-07T04:51:46;27.52;;;18.20;;
76292;SDS011;67256;51.154;4.164;2023-04-07T04:54:12;28.58;;;17.45;;
76292;SDS011;67256;51.154;4.164;2023-04-07T04:56:38;26.67;;;16.45;;
76292;SDS011;67256;51.154;4.164;2023-04-07T04:59:03;29.60;;;18.20;;
76292;SDS011;67256;51.154;4.164;2023-04-07T05:01:30;29.27;;;16.98;;
76292;SDS011;67256;51.154;4.164;2023-04-07T05:03:55;31.63;;;18.85;;
76292;SDS011;67256;51.154;4.164;2023-04-07T05:06:21;29.88;;;17.98;;
76292;SDS011;67256;51.154;4.164;2023-04-07T05:08:47;27.90;;;17.50;;
76292;SDS011;67256;51.154;4.164;2023-04-07T05:11:13;27.95;;;17.75;;
76292;SDS011;67256;51.154;4.164;2023-04-07T05:13:39;30.73;;;18.30;;
76292;SDS011;67256;51.154;4.164;2023-04-07T05:16:05;27.75;;;17.75;;
76292;SDS011;67256;51.154;4.164;2023-04-07T05:18:31;25.63;;;16.38;;
76292;SDS011;67256;51.154;4.164;2023-04-07T05:20:56;30.77;;;17.25;;
76292;SDS011;67256;51.154;4.164;2023-04-07T05:23:22;27.58;;;16.65;;
76292;SDS011;67256;51.154;4.164;2023-04-07T05:25:48;32.05;;;17.40;;
76292;SDS011;67256;51.154;4.164;2023-04-07T05:28:14;32.28;;;16.98;;
76292;SDS011;67256;51.154;4.164;2023-04-07T05:30:40;26.20;;;16.83;;
76292;SDS011;67256;51.154;4.164;2023-04-07T05:33:06;26.27;;;15.68;;
76292;SDS011;67256;51.154;4.164;2023-04-07T05:35:32;34.97;;;17.10;;
76292;SDS011;67256;51.154;4.164;2023-04-07T05:37:57;27.73;;;16.88;;
76292;SDS011;67256;51.154;4.164;2023-04-07T05:40:23;31.17;;;16.83;;
76292;SDS011;67256;51.154;4.164;2023-04-07T05:42:49;24.40;;;16.17;;
76292;SDS011;67256;51.154;4.164;2023-04-07T05:45:15;25.25;;;16.52;;
76292;SDS011;67256;51.154;4.164;2023-04-07T05:47:41;29.48;;;17.90;;
76292;SDS011;67256;51.154;4.164;2023-04-07T05:50:06;32.08;;;16.85;;
76292;SDS011;67256;51.154;4.164;2023-04-07T05:52:40;27.70;;;17.45;;
76292;SDS011;67256;51.154;4.164;2023-04-07T05:55:11;26.48;;;15.88;;
76292;SDS011;67256;51.154;4.164;2023-04-07T05:57:38;25.80;;;16.23;;
76292;SDS011;67256;51.154;4.164;2023-04-07T06:00:04;28.35;;;14.65;;
76292;SDS011;67256;51.154;4.164;2023-04-07T06:02:30;28.90;;;15.93;;
76292;SDS011;67256;51.154;4.164;2023-04-07T06:04:56;23.63;;;14.70;;
76292;SDS011;67256;51.154;4.164;2023-04-07T06:07:22;26.73;;;15.55;;
76292;SDS011;67256;51.154;4.164;2023-04-07T06:09:47;23.83;;;15.45;;
76292;SDS011;67256;51.154;4.164;2023-04-07T06:12:13;25.73;;;13.98;;
76292;SDS011;67256;51.154;4.164;2023-04-07T06:14:40;23.00;;;14.65;;
76292;SDS011;67256;51.154;4.164;2023-04-07T06:17:06;25.65;;;15.13;;
76292;SDS011;67256;51.154;4.164;2023-04-07T06:19:32;29.17;;;15.18;;
76292;SDS011;67256;51.154;4.164;2023-04-07T06:21:58;22.80;;;14.55;;
76292;SDS011;67256;51.154;4.164;2023-04-07T06:24:23;21.63;;;14.13;;
76292;SDS011;67256;51.154;4.164;2023-04-07T06:26:50;22.65;;;12.23;;
76292;SDS011;67256;51.154;4.164;2023-04-07T06:29:16;24.80;;;11.70;;
76292;SDS011;67256;51.154;4.164;2023-04-07T06:31:42;20.65;;;10.90;;
76292;SDS011;67256;51.154;4.164;2023-04-07T06:34:08;22.35;;;10.00;;
76292;SDS011;67256;51.154;4.164;2023-04-07T06:36:34;17.40;;;10.38;;
76292;SDS011;67256;51.154;4.164;2023-04-07T06:39:01;16.38;;;9.02;;
76292;SDS011;67256;51.154;4.164;2023-04-07T06:41:27;15.63;;;7.47;;
76292;SDS011;67256;51.154;4.164;2023-04-07T06:43:52;14.18;;;8.32;;
76292;SDS011;67256;51.154;4.164;2023-04-07T06:46:18;14.90;;;7.28;;
76292;SDS011;67256;51.154;4.164;2023-04-07T06:48:44;12.40;;;7.55;;
76292;SDS011;67256;51.154;4.164;2023-04-07T06:51:10;12.70;;;7.22;;
76292;SDS011;67256;51.154;4.164;2023-04-07T06:53:36;12.18;;;6.80;;
76292;SDS011;67256;51.154;4.164;2023-04-07T06:56:05;12.82;;;6.07;;
76292;SDS011;67256;51.154;4.164;2023-04-07T06:58:33;11.88;;;6.93;;
76292;SDS011;67256;51.154;4.164;2023-04-07T07:01:00;12.95;;;6.03;;
76292;SDS011;67256;51.154;4.164;2023-04-07T07:03:27;11.70;;;5.35;;
76292;SDS011;67256;51.154;4.164;2023-04-07T07:05:56;13.88;;;5.63;;
76292;SDS011;67256;51.154;4.164;2023-04-07T07:10:49;15.02;;;5.40;;
76292;SDS011;67256;51.154;4.164;2023-04-07T07:13:15;14.85;;;5.97;;
76292;SDS011;67256;51.154;4.164;2023-04-07T07:15:42;8.10;;;5.35;;
76292;SDS011;67256;51.154;4.164;2023-04-07T07:18:07;10.98;;;5.70;;
76292;SDS011;67256;51.154;4.164;2023-04-07T07:20:33;9.85;;;5.32;;
76292;SDS011;67256;51.154;4.164;2023-04-07T07:22:59;8.75;;;5.43;;
76292;SDS011;67256;51.154;4.164;2023-04-07T07:25:25;10.35;;;4.60;;
76292;SDS011;67256;51.154;4.164;2023-04-07T07:27:51;11.10;;;4.95;;
76292;SDS011;67256;51.154;4.164;2023-04-07T07:30:21;12.20;;;5.50;;
76292;SDS011;67256;51.154;4.164;2023-04-07T07:32:47;9.60;;;4.63;;
76292;SDS011;67256;51.154;4.164;2023-04-07T07:35:13;11.63;;;4.80;;
76292;SDS011;67256;51.154;4.164;2023-04-07T07:37:39;8.10;;;4.00;;
76292;SDS011;67256;51.154;4.164;2023-04-07T07:40:06;10.25;;;4.80;;
76292;SDS011;67256;51.154;4.164;2023-04-07T07:42:32;8.60;;;3.78;;
76292;SDS011;67256;51.154;4.164;2023-04-07T07:44:58;12.27;;;4.75;;
76292;SDS011;67256;51.154;4.164;2023-04-07T07:47:24;7.53;;;4.15;;
76292;SDS011;67256;51.154;4.164;2023-04-07T07:49:50;7.88;;;3.72;;
76292;SDS011;67256;51.154;4.164;2023-04-07T07:52:16;14.45;;;4.10;;
76292;SDS011;67256;51.154;4.164;2023-04-07T07:54:42;10.48;;;4.53;;
76292;SDS011;67256;51.154;4.164;2023-04-07T07:57:08;5.35;;;3.58;;
76292;SDS011;67256;51.154;4.164;2023-04-07T07:59:34;7.07;;;3.80;;
76292;SDS011;67256;51.154;4.164;2023-04-07T08:02:00;9.68;;;4.00;;
76292;SDS011;67256;51.154;4.164;2023-04-07T08:04:25;11.60;;;3.60;;
76292;SDS011;67256;51.154;4.164;2023-04-07T08:06:51;5.82;;;3.20;;
76292;SDS011;67256;51.154;4.164;2023-04-07T08:09:17;5.15;;;3.30;;
76292;SDS011;67256;51.154;4.164;2023-04-07T08:11:44;10.00;;;3.63;;
76292;SDS011;67256;51.154;4.164;2023-04-07T08:14:10;9.13;;;3.03;;
76292;SDS011;67256;51.154;4.164;2023-04-07T08:16:36;5.88;;;2.92;;
76292;SDS011;67256;51.154;4.164;2023-04-07T08:19:01;5.90;;;3.13;;
76292;SDS011;67256;51.154;4.164;2023-04-07T08:21:27;5.65;;;2.55;;
76292;SDS011;67256;51.154;4.164;2023-04-07T08:23:53;13.00;;;2.70;;
76292;SDS011;67256;51.154;4.164;2023-04-07T08:26:19;8.95;;;2.95;;
76292;SDS011;67256;51.154;4.164;2023-04-07T08:28:45;8.35;;;2.83;;
76292;SDS011;67256;51.154;4.164;2023-04-07T08:31:11;6.00;;;2.63;;
76292;SDS011;67256;51.154;4.164;2023-04-07T08:33:37;11.52;;;3.05;;
76292;SDS011;67256;51.154;4.164;2023-04-07T08:36:03;12.18;;;2.65;;
76292;SDS011;67256;51.154;4.164;2023-04-07T08:38:29;11.15;;;2.42;;
76292;SDS011;67256;51.154;4.164;2023-04-07T08:41:16;9.07;;;2.85;;
76292;SDS011;67256;51.154;4.164;2023-04-07T08:43:46;11.35;;;3.63;;
76292;SDS011;67256;51.154;4.164;2023-04-07T08:46:13;6.13;;;2.47;;
76292;SDS011;67256;51.154;4.164;2023-04-07T08:48:41;8.43;;;2.22;;
76292;SDS011;67256;51.154;4.164;2023-04-07T08:51:08;7.85;;;2.28;;
76292;SDS011;67256;51.154;4.164;2023-04-07T08:53:47;15.48;;;2.25;;
76292;SDS011;67256;51.154;4.164;2023-04-07T08:56:15;8.90;;;2.50;;
76292;SDS011;67256;51.154;4.164;2023-04-07T08:58:42;7.93;;;2.05;;
76292;SDS011;67256;51.154;4.164;2023-04-07T09:01:09;11.55;;;2.13;;
76292;SDS011;67256;51.154;4.164;2023-04-07T09:03:36;6.57;;;1.75;;
76292;SDS011;67256;51.154;4.164;2023-04-07T09:06:02;10.07;;;2.08;;
76292;SDS011;67256;51.154;4.164;2023-04-07T09:08:28;7.63;;;2.30;;
76292;SDS011;67256;51.154;4.164;2023-04-07T09:10:55;9.20;;;1.92;;
76292;SDS011;67256;51.154;4.164;2023-04-07T09:13:23;13.90;;;3.33;;
76292;SDS011;67256;51.154;4.164;2023-04-07T09:15:51;10.23;;;3.03;;
76292;SDS011;67256;51.154;4.164;2023-04-07T09:18:18;14.88;;;3.25;;
76292;SDS011;67256;51.154;4.164;2023-04-07T09:23:42;15.45;;;3.60;;
76292;SDS011;67256;51.154;4.164;2023-04-07T09:28:45;6.22;;;3.00;;
76292;SDS011;67256;51.154;4.164;2023-04-07T09:31:12;13.98;;;3.30;;
76292;SDS011;67256;51.154;4.164;2023-04-07T09:33:38;7.22;;;1.80;;
76292;SDS011;67256;51.154;4.164;2023-04-07T09:36:04;10.50;;;2.05;;
76292;SDS011;67256;51.154;4.164;2023-04-07T09:38:32;9.65;;;3.15;;
76292;SDS011;67256;51.154;4.164;2023-04-07T09:41:05;9.35;;;2.30;;
76292;SDS011;67256;51.154;4.164;2023-04-07T09:43:36;14.63;;;2.75;;
76292;SDS011;67256;51.154;4.164;2023-04-07T09:46:13;11.18;;;3.03;;
76292;SDS011;67256;51.154;4.164;2023-04-07T09:48:40;10.05;;;2.85;;
76292;SDS011;67256;51.154;4.164;2023-04-07T09:51:16;20.35;;;3.03;;
76292;SDS011;67256;51.154;4.164;2023-04-07T09:53:46;11.27;;;3.00;;
76292;SDS011;67256;51.154;4.164;2023-04-07T09:56:14;8.65;;;1.98;;
76292;SDS011;67256;51.154;4.164;2023-04-07T09:58:45;16.88;;;2.95;;
76292;SDS011;67256;51.154;4.164;2023-04-07T10:01:12;8.90;;;3.00;;
76292;SDS011;67256;51.154;4.164;2023-04-07T10:03:40;11.20;;;2.97;;
76292;SDS011;67256;51.154;4.164;2023-04-07T10:06:06;11.32;;;2.50;;
76292;SDS011;67256;51.154;4.164;2023-04-07T10:08:33;11.07;;;3.22;;
76292;SDS011;67256;51.154;4.164;2023-04-07T10:11:01;10.70;;;2.13;;
76292;SDS011;67256;51.154;4.164;2023-04-07T10:13:28;15.35;;;3.17;;
76292;SDS011;67256;51.154;4.164;2023-04-07T10:15:58;12.30;;;3.47;;
76292;SDS011;67256;51.154;4.164;2023-04-07T10:18:30;10.65;;;2.20;;
76292;SDS011;67256;51.154;4.164;2023-04-07T10:20:59;9.35;;;2.80;;
76292;SDS011;67256;51.154;4.164;2023-04-07T10:26:21;11.05;;;2.65;;
76292;SDS011;67256;51.154;4.164;2023-04-07T10:28:52;14.18;;;3.65;;
76292;SDS011;67256;51.154;4.164;2023-04-07T10:31:21;7.93;;;2.08;;
76292;SDS011;67256;51.154;4.164;2023-04-07T10:33:49;5.78;;;2.08;;
76292;SDS011;67256;51.154;4.164;2023-04-07T10:36:17;10.85;;;2.33;;
76292;SDS011;67256;51.154;4.164;2023-04-07T10:41:35;7.75;;;2.00;;
76292;SDS011;67256;51.154;4.164;2023-04-07T10:44:02;8.20;;;2.05;;
76292;SDS011;67256;51.154;4.164;2023-04-07T10:49:10;12.05;;;2.47;;
76292;SDS011;67256;51.154;4.164;2023-04-07T10:51:37;12.65;;;2.75;;
76292;SDS011;67256;51.154;4.164;2023-04-07T10:59:30;15.98;;;2.05;;
76292;SDS011;67256;51.154;4.164;2023-04-07T11:04:41;12.57;;;2.63;;
76292;SDS011;67256;51.154;4.164;2023-04-07T11:07:09;10.90;;;2.67;;
76292;SDS011;67256;51.154;4.164;2023-04-07T11:09:35;12.05;;;2.75;;
76292;SDS011;67256;51.154;4.164;2023-04-07T11:12:01;9.57;;;3.00;;
76292;SDS011;67256;51.154;4.164;2023-04-07T11:14:28;13.23;;;2.97;;
76292;SDS011;67256;51.154;4.164;2023-04-07T11:16:56;10.55;;;3.53;;
76292;SDS011;67256;51.154;4.164;2023-04-07T11:19:23;12.73;;;2.83;;
76292;SDS011;67256;51.154;4.164;2023-04-07T11:21:49;12.40;;;2.38;;
76292;SDS011;67256;51.154;4.164;2023-04-07T11:27:16;11.88;;;3.72;;
76292;SDS011;67256;51.154;4.164;2023-04-07T11:29:42;11.82;;;3.30;;
76292;SDS011;67256;51.154;4.164;2023-04-07T11:32:08;7.70;;;2.20;;
76292;SDS011;67256;51.154;4.164;2023-04-07T11:34:35;9.50;;;2.50;;
76292;SDS011;67256;51.154;4.164;2023-04-07T11:37:34;9.77;;;2.53;;
76292;SDS011;67256;51.154;4.164;2023-04-07T11:39:56;9.15;;;2.05;;
76292;SDS011;67256;51.154;4.164;2023-04-07T11:45:01;12.73;;;2.00;;
76292;SDS011;67256;51.154;4.164;2023-04-07T11:50:03;9.32;;;2.60;;
76292;SDS011;67256;51.154;4.164;2023-04-07T11:52:46;9.63;;;2.78;;
76292;SDS011;67256;51.154;4.164;2023-04-07T11:55:22;13.35;;;2.58;;
76292;SDS011;67256;51.154;4.164;2023-04-07T11:57:51;13.88;;;2.60;;
76292;SDS011;67256;51.154;4.164;2023-04-07T12:00:16;10.13;;;2.38;;
76292;SDS011;67256;51.154;4.164;2023-04-07T12:02:43;15.15;;;3.03;;
76292;SDS011;67256;51.154;4.164;2023-04-07T12:05:09;13.25;;;2.35;;
76292;SDS011;67256;51.154;4.164;2023-04-07T12:07:35;9.68;;;2.13;;
76292;SDS011;67256;51.154;4.164;2023-04-07T12:10:21;7.72;;;2.40;;
76292;SDS011;67256;51.154;4.164;2023-04-07T12:12:50;9.35;;;2.45;;
76292;SDS011;67256;51.154;4.164;2023-04-07T12:15:16;15.68;;;3.33;;
76292;SDS011;67256;51.154;4.164;2023-04-07T12:17:45;6.05;;;2.13;;
76292;SDS011;67256;51.154;4.164;2023-04-07T12:20:12;6.70;;;2.38;;
76292;SDS011;67256;51.154;4.164;2023-04-07T12:22:39;10.80;;;2.88;;
76292;SDS011;67256;51.154;4.164;2023-04-07T12:25:05;10.35;;;2.55;;
76292;SDS011;67256;51.154;4.164;2023-04-07T12:27:31;11.00;;;2.63;;
76292;SDS011;67256;51.154;4.164;2023-04-07T12:29:57;9.73;;;3.10;;
76292;SDS011;67256;51.154;4.164;2023-04-07T12:32:22;10.20;;;2.47;;
76292;SDS011;67256;51.154;4.164;2023-04-07T12:34:48;9.65;;;2.53;;
76292;SDS011;67256;51.154;4.164;2023-04-07T12:37:14;8.52;;;2.22;;
76292;SDS011;67256;51.154;4.164;2023-04-07T12:39:40;14.80;;;2.67;;
76292;SDS011;67256;51.154;4.164;2023-04-07T12:42:06;10.55;;;2.78;;
76292;SDS011;67256;51.154;4.164;2023-04-07T12:44:35;7.65;;;2.55;;
76292;SDS011;67256;51.154;4.164;2023-04-07T12:47:01;8.18;;;2.42;;
76292;SDS011;67256;51.154;4.164;2023-04-07T12:49:27;10.98;;;2.00;;
76292;SDS011;67256;51.154;4.164;2023-04-07T12:51:53;8.25;;;1.98;;
76292;SDS011;67256;51.154;4.164;2023-04-07T12:54:19;8.60;;;2.53;;
76292;SDS011;67256;51.154;4.164;2023-04-07T12:56:46;7.32;;;2.15;;
76292;SDS011;67256;51.154;4.164;2023-04-07T12:59:11;8.60;;;1.88;;
76292;SDS011;67256;51.154;4.164;2023-04-07T13:01:37;8.85;;;1.73;;
76292;SDS011;67256;51.154;4.164;2023-04-07T13:04:04;3.70;;;1.23;;
76292;SDS011;67256;51.154;4.164;2023-04-07T13:06:30;7.25;;;1.48;;
76292;SDS011;67256;51.154;4.164;2023-04-07T13:08:56;5.45;;;1.27;;
76292;SDS011;67256;51.154;4.164;2023-04-07T13:11:22;8.27;;;1.70;;
76292;SDS011;67256;51.154;4.164;2023-04-07T13:13:47;3.30;;;1.27;;
76292;SDS011;67256;51.154;4.164;2023-04-07T13:16:14;3.63;;;1.45;;
76292;SDS011;67256;51.154;4.164;2023-04-07T13:18:40;4.38;;;1.17;;
76292;SDS011;67256;51.154;4.164;2023-04-07T13:21:05;3.53;;;1.13;;
76292;SDS011;67256;51.154;4.164;2023-04-07T13:23:31;2.10;;;1.05;;
76292;SDS011;67256;51.154;4.164;2023-04-07T13:25:57;4.95;;;0.95;;
76292;SDS011;67256;51.154;4.164;2023-04-07T13:28:23;5.03;;;0.95;;
76292;SDS011;67256;51.154;4.164;2023-04-07T13:30:48;4.22;;;1.20;;
76292;SDS011;67256;51.154;4.164;2023-04-07T13:33:14;3.28;;;1.00;;
76292;SDS011;67256;51.154;4.164;2023-04-07T13:35:40;5.30;;;1.17;;
76292;SDS011;67256;51.154;4.164;2023-04-07T13:38:05;5.18;;;1.50;;
76292;SDS011;67256;51.154;4.164;2023-04-07T13:40:31;3.00;;;0.82;;
76292;SDS011;67256;51.154;4.164;2023-04-07T13:42:57;7.57;;;1.50;;
76292;SDS011;67256;51.154;4.164;2023-04-07T13:45:24;4.78;;;1.30;;
76292;SDS011;67256;51.154;4.164;2023-04-07T13:47:50;3.85;;;1.40;;
76292;SDS011;67256;51.154;4.164;2023-04-07T13:50:16;6.00;;;1.20;;
76292;SDS011;67256;51.154;4.164;2023-04-07T13:52:41;3.45;;;1.15;;
76292;SDS011;67256;51.154;4.164;2023-04-07T13:55:07;5.07;;;1.30;;
76292;SDS011;67256;51.154;4.164;2023-04-07T13:57:34;8.55;;;1.70;;
76292;SDS011;67256;51.154;4.164;2023-04-07T13:59:59;5.32;;;1.00;;
76292;SDS011;67256;51.154;4.164;2023-04-07T14:02:25;5.82;;;1.60;;
76292;SDS011;67256;51.154;4.164;2023-04-07T14:04:54;8.40;;;1.63;;
76292;SDS011;67256;51.154;4.164;2023-04-07T14:07:20;11.98;;;1.60;;
76292;SDS011;67256;51.154;4.164;2023-04-07T14:09:47;7.13;;;2.20;;
76292;SDS011;67256;51.154;4.164;2023-04-07T14:12:13;7.47;;;1.45;;
76292;SDS011;67256;51.154;4.164;2023-04-07T14:14:39;4.93;;;1.27;;
76292;SDS011;67256;51.154;4.164;2023-04-07T14:17:05;6.05;;;2.20;;
76292;SDS011;67256;51.154;4.164;2023-04-07T14:19:31;4.25;;;1.35;;
76292;SDS011;67256;51.154;4.164;2023-04-07T14:21:57;4.53;;;1.38;;
76292;SDS011;67256;51.154;4.164;2023-04-07T14:24:23;2.90;;;1.52;;
76292;SDS011;67256;51.154;4.164;2023-04-07T14:26:49;4.10;;;1.27;;
76292;SDS011;67256;51.154;4.164;2023-04-07T14:29:15;9.15;;;1.25;;
76292;SDS011;67256;51.154;4.164;2023-04-07T14:31:41;9.98;;;1.67;;
76292;SDS011;67256;51.154;4.164;2023-04-07T14:34:09;3.90;;;1.00;;
76292;SDS011;67256;51.154;4.164;2023-04-07T14:36:35;4.55;;;1.10;;
76292;SDS011;67256;51.154;4.164;2023-04-07T14:39:01;5.35;;;1.92;;
76292;SDS011;67256;51.154;4.164;2023-04-07T14:41:27;14.30;;;1.80;;
76292;SDS011;67256;51.154;4.164;2023-04-07T14:43:53;5.50;;;1.20;;
76292;SDS011;67256;51.154;4.164;2023-04-07T14:46:22;10.00;;;2.33;;
76292;SDS011;67256;51.154;4.164;2023-04-07T14:48:50;8.45;;;2.33;;
76292;SDS011;67256;51.154;4.164;2023-04-07T14:51:16;6.82;;;1.52;;
76292;SDS011;67256;51.154;4.164;2023-04-07T14:53:42;7.95;;;1.60;;
76292;SDS011;67256;51.154;4.164;2023-04-07T14:56:11;9.10;;;1.67;;
76292;SDS011;67256;51.154;4.164;2023-04-07T14:58:36;6.93;;;1.20;;
76292;SDS011;67256;51.154;4.164;2023-04-07T15:01:04;6.82;;;1.73;;
76292;SDS011;67256;51.154;4.164;2023-04-07T15:03:32;7.43;;;1.40;;
76292;SDS011;67256;51.154;4.164;2023-04-07T15:06:08;8.60;;;1.50;;
76292;SDS011;67256;51.154;4.164;2023-04-07T15:08:36;3.03;;;0.88;;
76292;SDS011;67256;51.154;4.164;2023-04-07T15:11:05;9.98;;;1.63;;
76292;SDS011;67256;51.154;4.164;2023-04-07T15:16:07;9.68;;;2.13;;